createdAt,value
2019-04-23T00:00:07.275Z,43.41
2019-04-23T00:02:23.312Z,43.57
2019-04-23T00:04:28.352Z,43.39
2019-04-23T00:06:47.702Z,43.47
2019-04-23T00:11:11.940Z,43.43
2019-04-23T00:13:05.792Z,43.40
2019-04-23T00:15:30.838Z,43.43
2019-04-23T00:17:30.447Z,43.21
2019-04-23T00:19:33.096Z,43.26
2019-04-23T00:21:48.323Z,43.47
2019-04-23T00:24:07.631Z,43.48
2019-04-23T00:26:13.139Z,43.49
2019-04-23T00:28:24.386Z,43.53
2019-04-23T00:30:34.955Z,43.51
2019-04-23T00:32:35.886Z,43.27
2019-04-23T00:34:51.417Z,43.37
2019-04-23T00:36:57.880Z,43.44
2019-04-23T00:38:54.321Z,43.49
2019-04-23T00:41:10.883Z,43.57
2019-04-23T00:45:24.721Z,43.56
2019-04-23T00:47:43.171Z,43.67
2019-04-23T00:49:40.356Z,43.52
2019-04-23T00:51:50.127Z,43.85
2019-04-23T00:53:56.621Z,43.75
2019-04-23T00:56:26.952Z,43.25
2019-04-23T00:58:22.366Z,43.20
2019-04-23T01:00:34.073Z,43.06
2019-04-23T01:04:44.154Z,43.38
2019-04-23T01:06:52.628Z,43.36
2019-04-23T01:09:00.162Z,43.41
2019-04-23T01:11:13.395Z,43.32
2019-04-23T01:13:22.928Z,43.45
2019-04-23T01:15:34.106Z,43.62
2019-04-23T01:17:47.230Z,43.80
2019-04-23T01:19:49.515Z,43.98
2019-04-23T01:21:53.748Z,43.80
2019-04-23T01:24:08.118Z,43.84
2019-04-23T01:26:29.816Z,43.84
2019-04-23T01:28:53.764Z,44.13
2019-04-23T01:30:56.703Z,43.80
2019-04-23T01:33:03.062Z,43.75
2019-04-23T01:37:18.084Z,44.36
2019-04-23T01:39:23.334Z,44.03
2019-04-23T01:41:41.514Z,44.15
2019-04-23T01:43:47.822Z,43.96
2019-04-23T01:45:50.267Z,43.98
2019-04-23T01:48:00.178Z,44.12
2019-04-23T01:50:16.816Z,44.09
2019-04-23T01:52:24.954Z,44.04
2019-04-23T01:54:30.374Z,43.90
2019-04-23T01:56:33.892Z,43.79
2019-04-23T01:58:44.038Z,43.91
2019-04-23T02:00:53.129Z,43.74
2019-04-23T02:03:01.161Z,43.79
2019-04-23T02:05:15.721Z,44.05
2019-04-23T02:07:24.376Z,43.68
2019-04-23T02:09:48.266Z,43.74
2019-04-23T02:11:42.179Z,43.87
2019-04-23T02:13:48.976Z,43.99
2019-04-23T02:15:51.555Z,43.99
2019-04-23T02:18:08.539Z,43.84
2019-04-23T02:20:17.172Z,44.04
2019-04-23T02:22:34.370Z,43.78
2019-04-23T02:24:41.326Z,43.79
2019-04-23T02:26:43.473Z,43.67
2019-04-23T02:28:53.225Z,43.67
2019-04-23T02:33:29.584Z,43.72
2019-04-23T02:35:34.472Z,43.81
2019-04-23T02:37:45.682Z,43.89
2019-04-23T02:39:53.652Z,43.85
2019-04-23T02:41:54.433Z,43.94
2019-04-23T02:44:04.886Z,44.05
2019-04-23T02:50:34.541Z,43.92
2019-04-23T02:52:31.050Z,43.91
2019-04-23T02:54:50.518Z,43.85
2019-04-23T02:59:04.272Z,44.02
2019-04-23T03:03:15.189Z,43.81
2019-04-23T03:05:21.618Z,43.61
2019-04-23T03:07:39.030Z,43.49
2019-04-23T03:11:54.118Z,43.41
2019-04-23T03:18:47.861Z,43.53
2019-04-23T03:25:35.729Z,43.67
2019-04-23T03:27:33.773Z,43.84
2019-04-23T03:29:59.691Z,43.90
2019-04-23T03:34:34.103Z,43.74
2019-04-23T03:38:36.268Z,43.93
2019-04-23T03:40:27.613Z,43.80
2019-04-23T03:42:43.102Z,43.69
2019-04-23T03:44:47.908Z,43.59
2019-04-23T03:46:49.847Z,43.51
2019-04-23T03:51:05.937Z,43.59
2019-04-23T03:53:25.549Z,43.65
2019-04-23T03:57:31.033Z,43.42
2019-04-23T03:59:51.966Z,43.29
2019-04-23T04:02:03.434Z,43.04
2019-04-23T04:06:16.786Z,43.11
2019-04-23T04:08:18.013Z,43.19
2019-04-23T04:10:25.602Z,42.92
2019-04-23T04:12:35.711Z,42.78
2019-04-23T04:14:46.656Z,42.27
2019-04-23T04:16:49.658Z,42.15
2019-04-23T04:21:14.199Z,41.79
2019-04-23T04:25:39.321Z,41.48
2019-04-23T04:27:47.949Z,41.23
2019-04-23T04:29:47.333Z,40.94
2019-04-23T04:38:25.095Z,40.35
2019-04-23T04:40:33.072Z,40.42
2019-04-23T04:42:36.365Z,40.28
2019-04-23T04:46:59.181Z,39.10
2019-04-23T04:48:58.802Z,37.76
2019-04-23T04:51:08.452Z,34.21
2019-04-23T04:53:23.279Z,31.52
2019-04-23T04:55:23.807Z,29.41
2019-04-23T04:57:35.980Z,28.14
2019-04-23T04:59:51.650Z,27.09
2019-04-23T05:01:49.031Z,26.03
2019-04-23T05:03:45.955Z,25.50
2019-04-23T05:06:31.611Z,24.69
2019-04-23T05:08:15.588Z,24.17
2019-04-23T05:10:30.062Z,23.96
2019-04-23T05:12:36.227Z,23.95
2019-04-23T05:14:44.006Z,23.22
2019-04-23T05:16:43.209Z,23.35
2019-04-23T05:18:56.793Z,23.31
2019-04-23T05:23:15.783Z,23.56
2019-04-23T05:25:12.463Z,23.02
2019-04-23T05:27:29.299Z,22.13
2019-04-23T05:29:30.955Z,22.82
2019-04-23T05:31:32.858Z,21.94
2019-04-23T05:33:57.192Z,21.13
2019-04-23T05:36:17.268Z,20.90
2019-04-23T05:38:18.580Z,20.06
2019-04-23T05:40:25.495Z,20.09
2019-04-23T05:42:26.655Z,20.08
2019-04-23T05:48:54.414Z,18.76
2019-04-23T05:53:07.400Z,17.45
2019-04-23T05:55:15.253Z,18.23
2019-04-23T05:57:20.219Z,18.23
2019-04-23T05:59:29.668Z,18.18
2019-04-23T06:03:50.951Z,17.20
2019-04-23T06:06:10.834Z,16.81
2019-04-23T06:08:11.932Z,16.32
2019-04-23T06:10:14.989Z,16.84
2019-04-23T06:12:21.931Z,17.11
2019-04-23T06:14:32.890Z,16.56
2019-04-23T06:16:41.890Z,16.59
2019-04-23T06:18:55.751Z,17.50
2019-04-23T06:25:27.477Z,18.62
2019-04-23T06:29:32.245Z,17.62
2019-04-23T06:31:43.994Z,15.76
2019-04-23T06:33:48.056Z,15.45
2019-04-23T06:35:57.283Z,15.16
2019-04-23T06:40:13.867Z,14.59
2019-04-23T06:42:19.415Z,14.49
2019-04-23T06:44:32.155Z,14.46
2019-04-23T06:46:43.512Z,14.25
2019-04-23T06:48:47.586Z,14.10
2019-04-23T06:52:59.514Z,16.81
2019-04-23T06:55:20.464Z,16.64
2019-04-23T06:57:23.779Z,17.83
2019-04-23T06:59:34.082Z,15.99
2019-04-23T07:01:46.323Z,14.62
2019-04-23T07:03:51.972Z,13.65
2019-04-23T07:06:16.815Z,13.93
2019-04-23T07:08:12.302Z,14.30
2019-04-23T07:10:43.402Z,14.91
2019-04-23T07:12:35.001Z,16.12
2019-04-23T07:14:44.870Z,15.51
2019-04-23T07:16:46.896Z,15.66
2019-04-23T07:19:02.708Z,16.95
2019-04-23T07:21:08.856Z,15.85
2019-04-23T07:23:23.878Z,15.16
2019-04-23T07:25:23.966Z,14.71
2019-04-23T07:27:49.332Z,16.13
2019-04-23T07:29:52.754Z,14.87
2019-04-23T07:31:54.570Z,14.95
2019-04-23T07:36:08.690Z,15.15
2019-04-23T07:38:48.110Z,14.41
2019-04-23T07:40:51.346Z,14.67
2019-04-23T07:43:09.060Z,15.36
2019-04-23T07:45:25.762Z,16.78
2019-04-23T07:47:53.816Z,18.24
2019-04-23T07:49:49.142Z,20.35
2019-04-23T07:52:03.679Z,21.29
2019-04-23T07:54:10.982Z,23.53
2019-04-23T07:56:13.083Z,23.44
2019-04-23T07:58:25.752Z,23.82
2019-04-23T08:00:41.498Z,23.80
2019-04-23T08:03:08.596Z,24.32
2019-04-23T08:05:04.810Z,24.27
2019-04-23T08:07:00.734Z,24.79
2019-04-23T08:09:09.194Z,24.38
2019-04-23T08:25:19.179Z,25.07
2019-04-23T08:27:42.937Z,25.49
2019-04-23T08:30:00.613Z,25.39
2019-04-23T08:34:48.243Z,25.31
2019-04-23T08:59:22.869Z,23.97
2019-04-23T09:01:17.164Z,24.11
2019-04-23T09:03:31.199Z,22.91
2019-04-23T09:05:40.051Z,23.60
2019-04-23T09:07:58.531Z,23.64
2019-04-23T09:10:00.503Z,23.60
2019-04-23T09:11:58.128Z,23.70
2019-04-23T09:14:04.944Z,23.48
2019-04-23T09:18:26.232Z,24.10
2019-04-23T09:20:34.292Z,23.36
2019-04-23T09:22:45.200Z,23.51
2019-04-23T09:24:55.558Z,23.70
2019-04-23T09:27:11.701Z,23.67
2019-04-23T09:29:12.121Z,22.93
2019-04-23T09:31:57.014Z,22.87
2019-04-23T09:33:46.896Z,23.08
2019-04-23T09:35:59.688Z,23.14
2019-04-23T09:38:25.415Z,23.37
2019-04-23T09:45:35.898Z,23.28
2019-04-23T09:48:00.278Z,23.41
2019-04-23T09:50:00.871Z,23.16
2019-04-23T09:52:15.364Z,23.55
2019-04-23T09:54:24.229Z,23.35
2019-04-23T09:56:32.762Z,23.07
2019-04-23T09:58:28.870Z,22.98
2019-04-23T10:01:00.683Z,22.92
2019-04-23T10:02:47.345Z,22.90
2019-04-23T10:04:56.884Z,22.13
2019-04-23T10:07:01.289Z,22.30
2019-04-23T10:08:58.711Z,22.10
2019-04-23T10:11:04.986Z,22.45
2019-04-23T10:13:12.009Z,22.16
2019-04-23T10:15:26.686Z,22.14
2019-04-23T10:17:31.896Z,21.94
2019-04-23T10:19:40.482Z,22.16
2019-04-23T10:21:47.179Z,21.76
2019-04-23T10:23:55.064Z,22.04
2019-04-23T10:26:01.984Z,22.24
2019-04-23T10:28:20.911Z,22.26
2019-04-23T10:30:28.887Z,21.58
2019-04-23T10:32:36.016Z,21.43
2019-04-23T10:34:52.409Z,21.38
2019-04-23T10:36:51.559Z,21.36
2019-04-23T10:39:03.545Z,21.36
2019-04-23T10:41:09.775Z,21.51
2019-04-23T10:43:17.127Z,21.32
2019-04-23T10:45:53.166Z,21.50
2019-04-23T10:48:31.517Z,21.09
2019-04-23T10:50:46.072Z,21.47
2019-04-23T10:53:01.670Z,21.32
2019-04-23T10:54:59.983Z,21.55
2019-04-23T11:01:43.475Z,20.93
2019-04-23T11:04:10.661Z,21.17
2019-04-23T11:08:13.169Z,21.18
2019-04-23T11:10:17.675Z,21.55
2019-04-23T11:12:37.539Z,21.45
2019-04-23T11:14:42.212Z,21.45
2019-04-23T11:16:56.696Z,21.23
2019-04-23T11:21:09.640Z,21.77
2019-04-23T11:23:08.121Z,22.07
2019-04-23T11:27:36.186Z,21.69
2019-04-23T11:30:05.698Z,21.43
2019-04-23T11:34:01.093Z,21.31
2019-04-23T11:36:39.349Z,20.84
2019-04-23T11:38:43.829Z,20.83
2019-04-23T11:40:26.831Z,20.91
2019-04-23T11:42:38.817Z,21.12
2019-04-23T11:44:40.089Z,21.24
2019-04-23T11:51:36.321Z,21.17
2019-04-23T11:53:39.125Z,21.19
2019-04-23T11:55:32.837Z,20.94
2019-04-23T11:57:42.515Z,21.35
2019-04-23T11:59:53.350Z,21.02
2019-04-23T12:01:56.499Z,21.25
2019-04-23T12:04:28.912Z,21.33
2019-04-23T12:06:31.303Z,21.16
2019-04-23T12:08:50.976Z,21.08
2019-04-23T12:11:36.144Z,21.15
2019-04-23T12:13:21.206Z,21.38
2019-04-23T12:15:29.494Z,21.45
2019-04-23T12:21:54.813Z,21.56
2019-04-23T12:24:04.624Z,21.05
2019-04-23T12:26:22.010Z,21.26
2019-04-23T12:28:18.097Z,21.44
2019-04-23T12:30:40.264Z,21.35
2019-04-23T12:34:52.837Z,21.26
2019-04-23T12:36:56.857Z,21.25
2019-04-23T12:39:04.304Z,20.93
2019-04-23T12:41:17.483Z,21.09
2019-04-23T12:43:18.910Z,20.85
2019-04-23T12:45:31.726Z,20.64
2019-04-23T12:50:05.406Z,20.92
2019-04-23T12:52:04.594Z,21.08
2019-04-23T12:54:07.766Z,21.16
2019-04-23T12:56:17.564Z,21.09
2019-04-23T13:00:30.923Z,21.03
2019-04-23T13:04:54.981Z,21.12
2019-04-23T13:07:01.712Z,21.04
2019-04-23T13:09:18.856Z,21.10
2019-04-23T13:11:23.325Z,20.86
2019-04-23T13:15:48.571Z,21.05
2019-04-23T13:20:07.632Z,21.67
2019-04-23T13:24:20.543Z,21.65
2019-04-23T13:26:32.107Z,22.05
2019-04-23T13:28:40.518Z,21.82
2019-04-23T13:30:54.529Z,22.02
2019-04-23T13:33:08.332Z,22.04
2019-04-23T13:35:21.605Z,21.83
2019-04-23T13:37:21.642Z,22.15
2019-04-23T13:39:29.125Z,22.31
2019-04-23T13:41:33.352Z,22.47
2019-04-23T13:48:06.723Z,22.09
2019-04-23T13:50:24.823Z,22.25
2019-04-23T13:54:59.803Z,21.66
2019-04-23T13:57:33.410Z,21.66
2019-04-23T13:59:49.543Z,21.57
2019-04-23T14:01:54.330Z,21.82
2019-04-23T14:04:24.072Z,21.47
2019-04-23T14:10:46.223Z,21.83
2019-04-23T14:13:10.783Z,21.74
2019-04-23T14:15:04.008Z,21.90
2019-04-23T14:19:14.321Z,21.71
2019-04-23T14:23:59.692Z,21.51
2019-04-23T14:26:04.560Z,21.71
2019-04-23T14:28:08.037Z,21.76
2019-04-23T14:30:12.816Z,21.49
2019-04-23T14:32:15.968Z,20.99
2019-04-23T14:34:17.043Z,20.79
2019-04-23T14:36:30.520Z,21.17
2019-04-23T14:38:41.564Z,21.26
2019-04-23T14:40:59.564Z,21.07
2019-04-23T14:43:10.878Z,21.10
2019-04-23T14:45:20.953Z,21.30
2019-04-23T14:47:27.926Z,21.10
2019-04-23T14:53:48.070Z,21.14
2019-04-23T15:00:25.342Z,21.03
2019-04-23T15:02:36.334Z,21.06
2019-04-23T15:04:43.432Z,21.01
2019-04-23T15:06:54.801Z,21.01
2019-04-23T15:09:04.251Z,20.87
2019-04-23T15:13:18.430Z,20.59
2019-04-23T15:15:26.959Z,20.87
2019-04-23T15:17:28.875Z,20.94
2019-04-23T15:19:48.195Z,20.92
2019-04-23T15:24:03.941Z,20.99
2019-04-23T15:27:08.525Z,21.34
2019-04-23T15:28:10.839Z,21.26
2019-04-23T15:30:20.921Z,21.20
2019-04-23T15:35:01.215Z,21.21
2019-04-23T15:39:19.421Z,21.30
2019-04-23T15:41:23.217Z,21.34
2019-04-23T15:43:51.138Z,21.47
2019-04-23T15:45:42.268Z,21.65
2019-04-23T15:47:56.703Z,21.83
2019-04-23T15:50:07.805Z,21.95
2019-04-23T15:52:03.122Z,22.07
2019-04-23T15:54:14.102Z,21.43
2019-04-23T15:56:33.458Z,21.60
2019-04-23T15:58:33.510Z,21.92
2019-04-23T16:00:39.830Z,21.74
2019-04-23T16:02:20.050Z,21.64
2019-04-23T16:04:27.611Z,21.41
2019-04-23T16:06:36.870Z,21.53
2019-04-23T16:09:06.435Z,21.58
2019-04-23T16:11:33.479Z,21.65
2019-04-23T16:13:42.493Z,21.55
2019-04-23T16:15:44.621Z,21.58
2019-04-23T16:17:53.588Z,21.50
2019-04-23T16:20:15.086Z,21.75
2019-04-23T16:22:31.493Z,21.50
2019-04-23T16:24:21.918Z,21.74
2019-04-23T16:26:45.086Z,21.71
2019-04-23T16:29:08.224Z,21.86
2019-04-23T16:33:08.667Z,22.08
2019-04-23T16:35:28.385Z,22.07
2019-04-23T16:37:29.278Z,22.02
2019-04-23T16:39:31.677Z,21.96
2019-04-23T16:41:52.161Z,21.79
2019-04-23T16:43:59.875Z,22.08
2019-04-23T16:46:07.255Z,22.23
2019-04-23T16:50:20.935Z,22.18
2019-04-23T16:52:26.643Z,21.93
2019-04-23T16:54:43.386Z,22.10
2019-04-23T16:57:01.644Z,22.18
2019-04-23T16:59:15.470Z,22.29
2019-04-23T17:01:07.295Z,22.46
2019-04-23T17:03:19.371Z,22.65
2019-04-23T17:05:24.817Z,22.80
2019-04-23T17:07:24.175Z,22.81
2019-04-23T17:14:02.780Z,23.09
2019-04-23T17:18:18.369Z,23.31
2019-04-23T17:20:30.819Z,23.19
2019-04-23T17:22:31.304Z,23.30
2019-04-23T17:24:39.924Z,23.59
2019-04-23T17:27:07.113Z,23.74
2019-04-23T17:29:06.637Z,24.09
2019-04-23T17:31:27.894Z,23.90
2019-04-23T17:36:00.932Z,24.13
2019-04-23T17:38:03.755Z,24.29
2019-04-23T17:40:08.563Z,24.35
2019-04-23T17:45:03.171Z,24.52
2019-04-23T17:46:54.134Z,24.71
2019-04-23T17:49:04.542Z,24.67
2019-04-23T17:51:19.683Z,24.76
2019-04-23T17:53:25.363Z,25.26
2019-04-23T17:55:33.840Z,25.26
2019-04-23T18:02:30.406Z,25.80
2019-04-23T18:04:12.427Z,25.81
2019-04-23T18:08:27.256Z,26.14
2019-04-23T18:10:38.747Z,26.28
2019-04-23T18:12:51.453Z,26.31
2019-04-23T18:15:00.396Z,26.26
2019-04-23T18:17:15.511Z,26.50
2019-04-23T18:21:44.156Z,26.62
2019-04-23T18:23:32.645Z,26.60
2019-04-23T18:26:00.221Z,26.79
2019-04-23T18:28:00.557Z,26.91
2019-04-23T18:35:04.008Z,27.23
2019-04-23T18:36:59.615Z,27.41
2019-04-23T18:39:02.934Z,27.36
2019-04-23T18:43:26.870Z,27.62
2019-04-23T18:45:45.331Z,27.55
2019-04-23T18:47:50.377Z,27.63
2019-04-23T18:51:58.177Z,27.92
2019-04-23T18:53:56.670Z,27.91
2019-04-23T18:58:40.696Z,27.83
2019-04-23T19:01:00.071Z,27.79
2019-04-23T19:03:04.152Z,28.01
2019-04-23T19:07:38.953Z,28.17
2019-04-23T19:09:39.152Z,28.25
2019-04-23T19:14:08.321Z,28.64
2019-04-23T19:16:25.360Z,28.61
2019-04-23T19:18:36.408Z,28.65
2019-04-23T19:20:53.403Z,28.69
2019-04-23T19:25:09.610Z,28.76
2019-04-23T19:27:18.921Z,28.91
2019-04-23T19:29:37.004Z,29.10
2019-04-23T19:31:54.075Z,28.91
2019-04-23T19:34:22.993Z,29.01
2019-04-23T19:36:17.611Z,29.12
2019-04-23T19:38:32.916Z,29.08
2019-04-23T19:40:56.769Z,29.22
2019-04-23T19:42:55.874Z,29.58
2019-04-23T19:44:54.063Z,29.40
2019-04-23T19:47:09.562Z,29.35
2019-04-23T19:56:00.149Z,29.91
2019-04-23T19:58:04.688Z,29.66
2019-04-23T20:00:11.225Z,29.77
2019-04-23T20:04:28.909Z,30.13
2019-04-23T20:07:00.169Z,30.13
2019-04-23T20:09:10.193Z,30.25
2019-04-23T20:10:54.421Z,30.35
2019-04-23T20:13:11.124Z,30.46
2019-04-23T20:15:08.490Z,30.38
2019-04-23T20:19:40.943Z,30.28
2019-04-23T20:21:46.923Z,30.11
2019-04-23T20:24:08.458Z,30.22
2019-04-23T20:28:31.026Z,30.40
2019-04-23T20:30:58.473Z,30.53
2019-04-23T20:37:03.229Z,30.37
2019-04-23T20:39:21.412Z,30.47
2019-04-23T20:41:56.456Z,30.43
2019-04-23T20:43:55.656Z,30.30
2019-04-23T20:48:32.538Z,30.46
2019-04-23T20:50:16.570Z,30.51
2019-04-23T20:52:13.121Z,30.49
2019-04-23T20:54:51.053Z,30.63
2019-04-23T20:56:51.108Z,30.53
2019-04-23T20:59:03.246Z,30.80
2019-04-23T21:03:47.104Z,30.80
2019-04-23T21:05:27.700Z,31.01
2019-04-23T21:07:54.061Z,30.91
2019-04-23T21:10:15.380Z,30.92
2019-04-23T21:12:04.834Z,30.99
2019-04-23T21:16:21.719Z,30.89
2019-04-23T21:18:32.625Z,31.02
2019-04-23T21:20:38.028Z,31.00
2019-04-23T21:22:55.834Z,31.06
2019-04-23T21:24:54.325Z,31.13
2019-04-23T21:27:20.414Z,31.21
2019-04-23T21:29:17.408Z,31.36
2019-04-23T21:31:22.909Z,31.22
2019-04-23T21:38:15.518Z,31.40
2019-04-23T21:41:05.929Z,31.57
2019-04-23T21:45:00.852Z,31.82
2019-04-23T21:47:27.385Z,31.74
2019-04-23T21:49:24.769Z,31.96
2019-04-23T21:51:42.144Z,31.89
2019-04-23T21:53:42.747Z,32.03
2019-04-23T21:56:43.106Z,31.94
2019-04-23T21:59:59.223Z,32.16
2019-04-23T22:02:12.727Z,31.81
2019-04-23T22:06:40.842Z,32.07
2019-04-23T22:08:49.427Z,32.09
2019-04-23T22:13:02.134Z,32.14
2019-04-23T22:14:55.890Z,32.03
2019-04-23T22:17:09.619Z,32.02
2019-04-23T22:23:41.088Z,31.97
2019-04-23T22:25:50.163Z,32.06
2019-04-23T22:27:54.971Z,32.09
2019-04-23T22:29:59.394Z,32.00
2019-04-23T22:32:04.390Z,32.01
2019-04-23T22:34:25.091Z,32.12
2019-04-23T22:36:21.082Z,32.14
2019-04-23T22:38:35.970Z,32.12
2019-04-23T22:40:41.313Z,32.09
2019-04-23T22:43:09.527Z,32.26
2019-04-23T22:51:47.596Z,32.44
2019-04-23T22:53:50.901Z,32.37
2019-04-23T23:00:13.785Z,32.21
2019-04-23T23:02:58.337Z,32.31
2019-04-23T23:05:06.605Z,32.32
2019-04-23T23:07:02.943Z,32.21
2019-04-23T23:11:10.335Z,32.46
2019-04-23T23:13:20.775Z,32.38
2019-04-23T23:15:30.601Z,32.42
2019-04-23T23:17:53.186Z,32.68
2019-04-23T23:20:01.095Z,32.64
2019-04-23T23:22:01.973Z,32.73
2019-04-23T23:24:07.519Z,32.79
2019-04-23T23:30:37.538Z,33.05
2019-04-23T23:35:11.284Z,32.90
2019-04-23T23:37:00.307Z,33.04
2019-04-23T23:39:22.700Z,33.10
2019-04-23T23:41:24.928Z,33.07
2019-04-23T23:43:24.203Z,33.19
2019-04-23T23:45:35.486Z,33.33
2019-04-23T23:47:39.470Z,33.33
2019-04-23T23:49:56.354Z,33.35
2019-04-23T23:51:57.843Z,33.58
2019-04-23T23:54:13.554Z,33.41
2019-04-23T23:58:28.880Z,33.58
